Time;durP1;ratioP1;P1;durP2;ratioP2;P2;SDS_P1;SDS_P2;PMS_P1;PMS_P2;Temp;Humidity;BMP_temperature;BMP_pressure;BME280_temperature;BME280_humidity;BME280_pressure;Samples;Min_cycle;Max_cycle;Signal;HPM_P1;HPM_P2
2021/07/07 00:01:21;;;;;;;2.40;1.60;;;;;;;;;;4987314;28;20042;-44
2021/07/07 00:03:48;;;;;;;2.30;1.83;;;;;;;;;;4992550;28;20054;-45
2021/07/07 00:06:14;;;;;;;3.25;2.10;;;;;;;;;;4992307;28;20073;-44
2021/07/07 00:08:41;;;;;;;3.33;1.90;;;;;;;;;;4986407;28;20047;-43
2021/07/07 00:11:08;;;;;;;2.63;1.95;;;;;;;;;;4989079;28;20114;-44
2021/07/07 00:13:35;;;;;;;3.33;1.90;;;;;;;;;;4993360;28;20034;-48
2021/07/07 00:16:02;;;;;;;3.75;2.00;;;;;;;;;;4992211;28;20046;-46
2021/07/07 00:18:29;;;;;;;3.35;1.98;;;;;;;;;;4988817;28;20035;-45
2021/07/07 00:20:55;;;;;;;3.13;1.85;;;;;;;;;;4992473;28;20058;-44
2021/07/07 00:23:23;;;;;;;3.22;1.58;;;;;;;;;;4983539;28;20049;-45
2021/07/07 00:25:50;;;;;;;4.93;2.00;;;;;;;;;;4984238;28;20130;-51
2021/07/07 00:28:17;;;;;;;2.42;1.75;;;;;;;;;;4991926;28;20049;-46
2021/07/07 00:30:45;;;;;;;2.95;2.00;;;;;;;;;;4991771;28;20385;-48
2021/07/07 00:33:14;;;;;;;2.67;1.70;;;;;;;;;;4982890;28;20097;-47
2021/07/07 00:35:40;;;;;;;3.20;1.55;;;;;;;;;;4991788;28;20053;-43
2021/07/07 00:38:08;;;;;;;2.20;1.40;;;;;;;;;;4992685;28;20069;-46
2021/07/07 00:40:35;;;;;;;2.45;1.60;;;;;;;;;;4984357;28;20065;-44
2021/07/07 00:43:02;;;;;;;3.03;1.60;;;;;;;;;;4990282;28;20137;-46
2021/07/07 00:45:29;;;;;;;2.35;1.95;;;;;;;;;;4990554;28;20039;-44
2021/07/07 00:47:55;;;;;;;2.40;1.50;;;;;;;;;;4993076;28;20421;-46
2021/07/07 00:50:23;;;;;;;2.97;1.70;;;;;;;;;;4988754;28;20124;-47
2021/07/07 00:52:50;;;;;;;2.88;1.80;;;;;;;;;;4983760;28;20062;-48
2021/07/07 00:55:17;;;;;;;2.85;1.73;;;;;;;;;;4985377;28;20066;-43
2021/07/07 00:57:44;;;;;;;2.10;1.58;;;;;;;;;;4991189;28;20125;-46
2021/07/07 01:00:21;;;;;;;4.55;1.70;;;;;;;;;;4990786;28;20045;-45
2021/07/07 01:02:50;;;;;;;2.80;1.70;;;;;;;;;;4989664;28;20724;-46
2021/07/07 01:05:17;;;;;;;2.15;1.80;;;;;;;;;;4991063;28;20142;-45
2021/07/07 01:07:44;;;;;;;5.38;1.80;;;;;;;;;;4990024;28;20042;-47
2021/07/07 01:10:13;;;;;;;2.50;1.80;;;;;;;;;;4984897;28;20097;-43
2021/07/07 01:12:41;;;;;;;3.17;1.77;;;;;;;;;;4982546;28;20587;-44
2021/07/07 01:15:12;;;;;;;2.85;1.52;;;;;;;;;;4985821;28;20484;-46
2021/07/07 01:17:39;;;;;;;2.65;1.80;;;;;;;;;;4990467;28;20064;-44
2021/07/07 01:20:16;;;;;;;2.33;1.65;;;;;;;;;;4978696;28;20467;-44
2021/07/07 01:22:43;;;;;;;2.47;1.70;;;;;;;;;;4987530;28;20069;-46
2021/07/07 01:25:11;;;;;;;2.22;1.33;;;;;;;;;;4977451;28;20042;-44
2021/07/07 01:27:39;;;;;;;2.53;1.63;;;;;;;;;;4991512;28;20074;-43
2021/07/07 01:30:07;;;;;;;2.03;1.60;;;;;;;;;;4990396;28;20081;-43
2021/07/07 01:32:35;;;;;;;2.05;1.40;;;;;;;;;;4986861;28;20551;-46
2021/07/07 01:35:03;;;;;;;2.28;1.50;;;;;;;;;;4992897;28;20034;-43
2021/07/07 01:37:29;;;;;;;2.25;1.60;;;;;;;;;;4991420;28;20062;-44
2021/07/07 01:39:56;;;;;;;1.95;1.55;;;;;;;;;;4988080;28;20039;-42
2021/07/07 01:42:23;;;;;;;1.58;1.42;;;;;;;;;;4991390;28;20049;-43
2021/07/07 01:44:50;;;;;;;2.55;1.42;;;;;;;;;;4990677;28;20078;-45
2021/07/07 01:47:17;;;;;;;1.95;1.40;;;;;;;;;;4990315;28;20504;-42
2021/07/07 01:49:43;;;;;;;1.42;1.20;;;;;;;;;;4973808;28;20043;-48
2021/07/07 01:52:10;;;;;;;1.83;1.40;;;;;;;;;;4987566;28;20506;-47
2021/07/07 01:54:37;;;;;;;2.33;1.40;;;;;;;;;;4984207;28;20496;-45
2021/07/07 01:57:04;;;;;;;2.42;1.60;;;;;;;;;;4990373;28;20093;-42
2021/07/07 01:59:30;;;;;;;2.25;1.50;;;;;;;;;;4988439;28;20076;-48
2021/07/07 02:01:57;;;;;;;1.95;1.50;;;;;;;;;;4983740;28;20050;-46
2021/07/07 02:04:24;;;;;;;1.83;1.50;;;;;;;;;;4985414;28;20034;-44
2021/07/07 02:06:51;;;;;;;2.95;1.90;;;;;;;;;;4989836;28;20149;-45
2021/07/07 02:09:19;;;;;;;2.50;1.67;;;;;;;;;;4989797;28;20070;-49
2021/07/07 02:11:47;;;;;;;3.20;1.60;;;;;;;;;;4983720;28;20484;-43
2021/07/07 02:14:16;;;;;;;4.18;1.70;;;;;;;;;;4982730;28;20031;-43
2021/07/07 02:16:45;;;;;;;2.97;1.50;;;;;;;;;;4988620;28;20108;-45
2021/07/07 02:19:12;;;;;;;2.03;1.50;;;;;;;;;;4989530;28;20038;-42
2021/07/07 02:21:39;;;;;;;1.73;1.38;;;;;;;;;;4981196;28;20046;-47
2021/07/07 02:24:06;;;;;;;3.60;1.75;;;;;;;;;;4976876;28;20133;-47
2021/07/07 02:26:33;;;;;;;4.00;1.60;;;;;;;;;;4983373;28;20418;-46
2021/07/07 02:29:00;;;;;;;1.92;1.60;;;;;;;;;;4989151;28;20128;-45
2021/07/07 02:31:26;;;;;;;3.58;1.67;;;;;;;;;;4987132;28;20412;-43
2021/07/07 02:33:53;;;;;;;3.10;2.00;;;;;;;;;;4988847;28;20045;-47
2021/07/07 02:36:20;;;;;;;2.70;1.77;;;;;;;;;;4990064;28;20050;-43
2021/07/07 02:38:47;;;;;;;2.40;2.00;;;;;;;;;;4990856;28;20548;-45
2021/07/07 02:41:14;;;;;;;2.33;1.90;;;;;;;;;;4983014;28;20129;-43
2021/07/07 02:43:40;;;;;;;5.13;1.90;;;;;;;;;;4990869;28;20567;-42
2021/07/07 02:46:08;;;;;;;2.20;1.80;;;;;;;;;;4989894;28;20053;-42
2021/07/07 02:48:35;;;;;;;2.30;1.90;;;;;;;;;;4975318;28;20047;-43
2021/07/07 02:51:01;;;;;;;2.95;1.80;;;;;;;;;;4980118;28;20447;-45
2021/07/07 02:53:28;;;;;;;3.47;2.30;;;;;;;;;;4985509;28;20321;-46
2021/07/07 02:55:55;;;;;;;2.60;2.15;;;;;;;;;;4987463;28;20080;-51
2021/07/07 02:58:22;;;;;;;2.88;1.83;;;;;;;;;;4990590;28;20070;-42
2021/07/07 03:00:49;;;;;;;3.28;1.60;;;;;;;;;;4990271;28;20401;-47
2021/07/07 03:03:17;;;;;;;3.83;1.85;;;;;;;;;;4982162;28;20054;-45
2021/07/07 03:05:51;;;;;;;2.00;1.50;;;;;;;;;;4978488;28;20597;-47
2021/07/07 03:08:19;;;;;;;2.85;1.70;;;;;;;;;;4989744;28;20153;-43
2021/07/07 03:10:46;;;;;;;3.45;1.90;;;;;;;;;;4986202;28;20057;-42
2021/07/07 03:13:13;;;;;;;3.33;1.98;;;;;;;;;;4981822;28;20042;-46
2021/07/07 03:15:41;;;;;;;2.92;1.98;;;;;;;;;;4990222;28;20073;-42
2021/07/07 03:18:08;;;;;;;3.63;1.90;;;;;;;;;;4994105;28;20129;-42
2021/07/07 03:20:36;;;;;;;2.35;2.00;;;;;;;;;;4984237;28;20385;-46
2021/07/07 03:23:03;;;;;;;3.35;2.30;;;;;;;;;;4987088;28;20061;-41
2021/07/07 03:25:31;;;;;;;4.88;2.22;;;;;;;;;;4979224;28;20038;-45
2021/07/07 03:27:57;;;;;;;2.60;1.80;;;;;;;;;;4991365;28;20047;-47
2021/07/07 03:30:27;;;;;;;3.20;2.05;;;;;;;;;;4994044;28;20527;-42
2021/07/07 03:32:54;;;;;;;2.47;1.90;;;;;;;;;;4987980;28;20477;-44
2021/07/07 03:35:22;;;;;;;4.45;2.10;;;;;;;;;;4977951;28;20133;-43
2021/07/07 03:37:49;;;;;;;4.90;1.80;;;;;;;;;;4991028;28;20042;-43
2021/07/07 03:40:17;;;;;;;3.45;1.70;;;;;;;;;;4992417;28;20462;-45
2021/07/07 03:42:44;;;;;;;2.47;1.70;;;;;;;;;;4992861;28;20042;-46
2021/07/07 03:45:12;;;;;;;2.88;2.28;;;;;;;;;;4994397;28;20100;-45
2021/07/07 03:47:39;;;;;;;2.50;1.85;;;;;;;;;;4992996;28;20504;-45
2021/07/07 03:50:07;;;;;;;2.53;1.90;;;;;;;;;;4989852;28;20138;-42
2021/07/07 03:52:34;;;;;;;2.38;1.90;;;;;;;;;;4987129;28;20117;-44
2021/07/07 03:55:02;;;;;;;2.90;1.80;;;;;;;;;;4984231;28;20066;-46
2021/07/07 03:57:30;;;;;;;2.55;1.90;;;;;;;;;;4991099;28;20058;-47
2021/07/07 03:59:56;;;;;;;2.00;1.75;;;;;;;;;;4991195;28;20137;-47
2021/07/07 04:02:23;;;;;;;2.80;1.75;;;;;;;;;;4984535;28;20042;-46
2021/07/07 04:04:50;;;;;;;4.15;2.22;;;;;;;;;;4991882;28;20042;-41
2021/07/07 04:07:17;;;;;;;4.88;2.20;;;;;;;;;;4991666;28;20050;-44
2021/07/07 04:09:43;;;;;;;3.30;2.50;;;;;;;;;;4982174;28;20239;-44
2021/07/07 04:12:10;;;;;;;3.22;1.95;;;;;;;;;;4981603;28;20731;-41
2021/07/07 04:14:37;;;;;;;2.28;1.90;;;;;;;;;;4992885;28;20125;-45
2021/07/07 04:17:04;;;;;;;3.65;2.28;;;;;;;;;;4992823;28;20044;-44
2021/07/07 04:19:32;;;;;;;4.95;2.05;;;;;;;;;;4983433;28;20129;-46
2021/07/07 04:21:58;;;;;;;2.88;2.00;;;;;;;;;;4991683;28;20046;-50
2021/07/07 04:24:25;;;;;;;2.55;1.73;;;;;;;;;;4976874;28;20580;-46
2021/07/07 04:26:52;;;;;;;3.45;1.85;;;;;;;;;;4979772;28;20046;-43
2021/07/07 04:29:19;;;;;;;2.97;1.90;;;;;;;;;;5004704;22;20563;-47
2021/07/07 04:31:45;;;;;;;7.75;2.10;;;;;;;;;;4985051;28;20050;-49
2021/07/07 04:34:13;;;;;;;2.42;1.77;;;;;;;;;;4996944;28;20043;-50
2021/07/07 04:36:40;;;;;;;3.20;1.85;;;;;;;;;;4991499;28;20513;-48
2021/07/07 04:39:07;;;;;;;4.35;1.83;;;;;;;;;;4992239;28;20038;-46
2021/07/07 04:41:34;;;;;;;2.95;2.10;;;;;;;;;;4989703;28;20479;-47
2021/07/07 04:44:01;;;;;;;2.83;2.00;;;;;;;;;;4992355;28;20121;-47
2021/07/07 04:46:28;;;;;;;2.35;1.75;;;;;;;;;;4992007;28;20058;-48
2021/07/07 04:48:55;;;;;;;2.30;1.75;;;;;;;;;;4992789;28;20484;-46
2021/07/07 04:51:22;;;;;;;4.68;2.85;;;;;;;;;;4983937;28;20045;-47
2021/07/07 04:53:48;;;;;;;5.43;2.30;;;;;;;;;;4982770;28;20034;-51
2021/07/07 04:56:15;;;;;;;3.05;2.15;;;;;;;;;;4991269;28;20505;-45
2021/07/07 04:58:42;;;;;;;2.35;1.80;;;;;;;;;;4988691;28;20042;-47
2021/07/07 05:01:09;;;;;;;3.72;1.92;;;;;;;;;;4992259;28;20072;-48
2021/07/07 05:03:36;;;;;;;4.18;2.00;;;;;;;;;;4995267;28;20504;-46
2021/07/07 05:06:03;;;;;;;2.53;2.00;;;;;;;;;;4991704;28;20061;-49
2021/07/07 05:08:29;;;;;;;4.30;2.30;;;;;;;;;;4989985;28;20133;-47
2021/07/07 05:10:56;;;;;;;3.33;2.45;;;;;;;;;;4982364;28;20034;-46
2021/07/07 05:13:23;;;;;;;3.05;2.00;;;;;;;;;;4984883;28;20072;-48
2021/07/07 05:15:51;;;;;;;3.30;1.85;;;;;;;;;;4987648;28;20046;-48
2021/07/07 05:18:19;;;;;;;2.92;1.70;;;;;;;;;;4984784;28;20035;-48
2021/07/07 05:20:46;;;;;;;2.05;1.63;;;;;;;;;;4981811;28;20133;-48
2021/07/07 05:23:13;;;;;;;3.88;2.10;;;;;;;;;;4988099;28;20163;-49
2021/07/07 05:25:40;;;;;;;3.63;2.05;;;;;;;;;;4984103;28;20137;-47
2021/07/07 05:28:07;;;;;;;3.53;2.08;;;;;;;;;;4986794;28;20045;-46
2021/07/07 05:30:34;;;;;;;2.50;1.92;;;;;;;;;;4989441;28;20050;-47
2021/07/07 05:33:01;;;;;;;2.83;1.63;;;;;;;;;;4987000;28;20129;-46
2021/07/07 05:35:28;;;;;;;2.47;1.67;;;;;;;;;;4987584;28;20069;-46
2021/07/07 05:37:55;;;;;;;3.58;1.88;;;;;;;;;;4990894;28;20104;-47
2021/07/07 05:40:23;;;;;;;2.75;1.90;;;;;;;;;;4988659;28;20046;-46
2021/07/07 05:42:53;;;;;;;3.92;1.80;;;;;;;;;;4986939;28;20133;-47
2021/07/07 05:45:22;;;;;;;2.28;1.77;;;;;;;;;;4985216;28;20048;-46
2021/07/07 05:47:56;;;;;;;2.08;1.70;;;;;;;;;;4982034;28;20066;-46
2021/07/07 05:50:24;;;;;;;2.22;1.80;;;;;;;;;;4980779;28;20042;-47
2021/07/07 05:52:51;;;;;;;2.45;1.67;;;;;;;;;;4977566;28;20043;-47
2021/07/07 05:55:20;;;;;;;4.55;1.75;;;;;;;;;;4986754;28;20047;-46
2021/07/07 05:57:47;;;;;;;2.53;1.50;;;;;;;;;;4988150;28;20046;-46
2021/07/07 06:00:16;;;;;;;5.85;1.48;;;;;;;;;;4989463;28;20065;-46
2021/07/07 06:02:44;;;;;;;3.00;1.33;;;;;;;;;;4987648;28;20046;-46
2021/07/07 06:05:11;;;;;;;2.03;1.40;;;;;;;;;;4988711;28;20133;-46
2021/07/07 06:07:42;;;;;;;2.28;1.42;;;;;;;;;;4989628;28;20066;-46
2021/07/07 06:10:14;;;;;;;2.38;1.50;;;;;;;;;;4990791;28;20046;-46
2021/07/07 06:12:41;;;;;;;2.30;1.50;;;;;;;;;;4971830;28;20039;-47
2021/07/07 06:15:08;;;;;;;2.08;1.17;;;;;;;;;;4986483;28;20570;-45
2021/07/07 06:17:35;;;;;;;4.72;1.50;;;;;;;;;;4989480;28;20125;-45
2021/07/07 06:20:04;;;;;;;2.40;1.05;;;;;;;;;;4986786;28;20038;-45
2021/07/07 06:22:31;;;;;;;2.00;1.40;;;;;;;;;;4983208;28;20084;-45
2021/07/07 06:24:57;;;;;;;2.08;1.30;;;;;;;;;;4986952;28;20060;-46
2021/07/07 06:27:24;;;;;;;3.22;1.00;;;;;;;;;;4989520;28;20043;-45
2021/07/07 06:29:51;;;;;;;1.75;1.13;;;;;;;;;;4987661;28;20137;-44
2021/07/07 06:32:18;;;;;;;2.67;1.27;;;;;;;;;;4983805;28;20081;-45
2021/07/07 06:34:45;;;;;;;2.15;1.30;;;;;;;;;;4990142;28;20038;-45
2021/07/07 06:37:12;;;;;;;3.38;1.33;;;;;;;;;;4985770;28;20441;-50
2021/07/07 06:39:39;;;;;;;3.60;1.63;;;;;;;;;;4985206;28;20081;-47
2021/07/07 06:42:06;;;;;;;3.42;1.60;;;;;;;;;;4986426;28;20081;-47
2021/07/07 06:44:33;;;;;;;2.35;1.23;;;;;;;;;;4988860;28;20451;-47
2021/07/07 06:47:00;;;;;;;2.47;1.38;;;;;;;;;;4990283;28;20125;-42
2021/07/07 06:49:26;;;;;;;1.50;1.10;;;;;;;;;;4980551;28;20039;-42
2021/07/07 06:51:53;;;;;;;2.80;1.60;;;;;;;;;;4987282;28;20125;-42
2021/07/07 06:54:20;;;;;;;3.17;1.58;;;;;;;;;;4991155;28;20042;-42
2021/07/07 06:56:47;;;;;;;2.85;1.73;;;;;;;;;;4991718;28;20512;-43
2021/07/07 06:59:13;;;;;;;3.83;1.90;;;;;;;;;;4987027;28;20035;-43
2021/07/07 07:01:40;;;;;;;2.63;1.70;;;;;;;;;;4982280;28;20042;-43
2021/07/07 07:04:07;;;;;;;2.63;1.70;;;;;;;;;;4992054;28;20526;-46
2021/07/07 07:06:35;;;;;;;2.08;1.58;;;;;;;;;;4993479;28;20051;-44
2021/07/07 07:09:03;;;;;;;2.53;1.70;;;;;;;;;;4986954;28;20098;-44
2021/07/07 07:11:30;;;;;;;2.85;1.70;;;;;;;;;;4992620;28;20499;-44
2021/07/07 07:13:57;;;;;;;2.05;1.40;;;;;;;;;;4993724;28;20439;-44
2021/07/07 07:16:24;;;;;;;4.25;1.73;;;;;;;;;;4993886;28;20117;-42
2021/07/07 07:18:51;;;;;;;2.13;1.60;;;;;;;;;;4989770;28;20047;-43
2021/07/07 07:21:18;;;;;;;2.75;2.00;;;;;;;;;;4994317;28;20480;-43
2021/07/07 07:23:45;;;;;;;2.75;1.73;;;;;;;;;;4990972;28;20415;-44
2021/07/07 07:26:13;;;;;;;2.33;1.42;;;;;;;;;;4994872;28;20081;-40
2021/07/07 07:28:41;;;;;;;2.88;1.83;;;;;;;;;;4992309;28;20149;-41
2021/07/07 07:31:17;;;;;;;3.03;1.42;;;;;;;;;;4993541;28;20412;-41
2021/07/07 07:33:44;;;;;;;2.50;1.50;;;;;;;;;;4993358;28;20066;-42
2021/07/07 07:36:23;;;;;;;4.55;1.33;;;;;;;;;;4994022;28;20092;-41
2021/07/07 07:38:59;;;;;;;2.97;1.20;;;;;;;;;;4994951;28;20069;-45
2021/07/07 07:41:27;;;;;;;4.13;1.55;;;;;;;;;;4985360;28;20066;-40
2021/07/07 07:43:54;;;;;;;2.67;1.33;;;;;;;;;;4993828;28;20058;-45
2021/07/07 07:46:20;;;;;;;2.95;1.55;;;;;;;;;;4993576;28;20121;-44
2021/07/07 07:48:47;;;;;;;2.85;1.60;;;;;;;;;;4987939;28;20568;-41
2021/07/07 07:51:14;;;;;;;2.20;1.45;;;;;;;;;;4992252;28;20060;-42
2021/07/07 07:53:41;;;;;;;3.28;1.90;;;;;;;;;;4983091;28;20051;-42
2021/07/07 07:56:08;;;;;;;2.92;2.20;;;;;;;;;;4991416;28;20045;-43
2021/07/07 07:58:35;;;;;;;6.93;1.90;;;;;;;;;;4991257;28;20050;-42
2021/07/07 08:01:02;;;;;;;3.28;1.55;;;;;;;;;;4989595;28;20038;-42
2021/07/07 08:03:29;;;;;;;3.60;1.30;;;;;;;;;;4983617;28;20082;-45
2021/07/07 08:05:55;;;;;;;2.78;1.45;;;;;;;;;;4991373;28;20054;-42
2021/07/07 08:08:22;;;;;;;2.85;1.45;;;;;;;;;;4992552;28;20141;-42
2021/07/07 08:10:49;;;;;;;3.15;1.60;;;;;;;;;;4990233;28;20518;-42
2021/07/07 08:13:15;;;;;;;2.80;1.88;;;;;;;;;;4986340;28;20133;-43
2021/07/07 08:15:42;;;;;;;3.40;2.20;;;;;;;;;;4989142;28;20618;-43
2021/07/07 08:18:09;;;;;;;2.92;1.65;;;;;;;;;;4980796;28;20073;-43
2021/07/07 08:20:36;;;;;;;2.22;1.42;;;;;;;;;;4984560;28;20408;-42
2021/07/07 08:23:03;;;;;;;3.42;1.65;;;;;;;;;;4986779;28;20043;-45
2021/07/07 08:25:30;;;;;;;3.35;1.60;;;;;;;;;;4989313;28;20061;-43
2021/07/07 08:27:56;;;;;;;3.90;1.77;;;;;;;;;;4988932;28;20574;-42
2021/07/07 08:30:23;;;;;;;3.28;1.70;;;;;;;;;;4993564;28;20050;-45
2021/07/07 08:32:50;;;;;;;5.35;2.10;;;;;;;;;;4989153;28;20129;-44
2021/07/07 08:35:18;;;;;;;5.90;1.70;;;;;;;;;;4987466;28;20046;-43
2021/07/07 08:37:45;;;;;;;4.22;1.70;;;;;;;;;;4986694;28;20060;-43
2021/07/07 08:40:13;;;;;;;2.35;1.38;;;;;;;;;;4986796;28;20978;-43
2021/07/07 08:42:42;;;;;;;2.85;1.40;;;;;;;;;;4985781;28;20369;-41
2021/07/07 08:45:10;;;;;;;2.38;1.40;;;;;;;;;;4987401;28;20427;-42
2021/07/07 08:47:38;;;;;;;5.22;1.52;;;;;;;;;;4987367;28;20093;-43
2021/07/07 08:50:05;;;;;;;3.55;1.70;;;;;;;;;;4990740;28;20530;-44
2021/07/07 08:52:32;;;;;;;2.67;1.80;;;;;;;;;;4978050;28;20059;-43
2021/07/07 08:54:59;;;;;;;4.30;2.03;;;;;;;;;;4983830;28;20060;-42
2021/07/07 08:57:27;;;;;;;4.50;2.60;;;;;;;;;;4988799;28;20042;-41
2021/07/07 08:59:57;;;;;;;3.70;3.08;;;;;;;;;;4990508;28;20408;-42
2021/07/07 09:02:26;;;;;;;7.57;3.00;;;;;;;;;;4975342;28;20051;-42
2021/07/07 09:04:53;;;;;;;3.28;2.92;;;;;;;;;;4981443;28;20168;-43
2021/07/07 09:07:23;;;;;;;4.30;3.47;;;;;;;;;;4988145;28;20043;-45
2021/07/07 09:09:51;;;;;;;4.43;3.00;;;;;;;;;;4989137;28;20133;-42
2021/07/07 09:12:21;;;;;;;5.10;3.80;;;;;;;;;;4991126;28;20161;-43
2021/07/07 09:14:51;;;;;;;6.35;3.65;;;;;;;;;;4988041;28;20126;-43
2021/07/07 09:17:19;;;;;;;4.55;3.70;;;;;;;;;;4990708;28;20129;-42
2021/07/07 09:19:47;;;;;;;5.03;3.88;;;;;;;;;;4991639;28;20460;-42
2021/07/07 09:22:14;;;;;;;9.18;4.03;;;;;;;;;;4988585;28;20463;-45
2021/07/07 09:24:45;;;;;;;6.55;3.80;;;;;;;;;;4982039;28;20061;-43
2021/07/07 09:27:14;;;;;;;6.25;3.70;;;;;;;;;;4989208;28;20138;-44
2021/07/07 09:29:52;;;;;;;3.78;3.38;;;;;;;;;;4987915;28;20051;-44
2021/07/07 09:32:20;;;;;;;5.60;3.90;;;;;;;;;;4987191;28;20047;-43
2021/07/07 09:34:50;;;;;;;5.32;4.18;;;;;;;;;;4991195;28;20050;-42
2021/07/07 09:37:21;;;;;;;5.22;3.58;;;;;;;;;;4991546;28;20117;-43
2021/07/07 09:39:48;;;;;;;4.07;3.50;;;;;;;;;;4987460;28;20122;-43
2021/07/07 09:42:22;;;;;;;4.95;4.10;;;;;;;;;;4994052;28;20112;-44
2021/07/07 09:44:49;;;;;;;7.78;3.67;;;;;;;;;;4974809;28;20137;-43
2021/07/07 09:47:17;;;;;;;6.45;3.78;;;;;;;;;;4984889;28;20074;-43
2021/07/07 09:49:47;;;;;;;4.97;3.40;;;;;;;;;;4986572;28;20057;-44
2021/07/07 09:52:17;;;;;;;5.50;4.00;;;;;;;;;;4986541;28;20140;-42
2021/07/07 09:54:45;;;;;;;5.85;3.90;;;;;;;;;;4984620;28;20038;-42
2021/07/07 09:57:16;;;;;;;4.22;3.30;;;;;;;;;;4985442;28;20046;-43
2021/07/07 09:59:42;;;;;;;4.78;3.53;;;;;;;;;;4986276;28;20046;-42
2021/07/07 10:02:09;;;;;;;6.35;3.90;;;;;;;;;;4986831;28;20077;-41
2021/07/07 10:04:37;;;;;;;5.13;3.60;;;;;;;;;;4991552;28;20506;-43
2021/07/07 10:07:05;;;;;;;5.18;3.63;;;;;;;;;;4989660;28;20388;-43
2021/07/07 10:09:34;;;;;;;4.72;3.75;;;;;;;;;;4985926;28;20137;-41
2021/07/07 10:12:01;;;;;;;4.70;3.65;;;;;;;;;;4977651;28;20403;-42
2021/07/07 10:14:29;;;;;;;5.30;3.97;;;;;;;;;;4990715;28;20514;-40
2021/07/07 10:16:57;;;;;;;6.57;3.95;;;;;;;;;;4990829;28;20034;-42
2021/07/07 10:19:24;;;;;;;5.22;3.80;;;;;;;;;;4981742;28;20035;-41
2021/07/07 10:21:51;;;;;;;4.60;3.40;;;;;;;;;;4976686;28;20128;-43
2021/07/07 10:24:21;;;;;;;5.82;3.70;;;;;;;;;;4983945;28;20069;-41
2021/07/07 10:26:49;;;;;;;3.78;3.33;;;;;;;;;;4991476;28;20048;-41
2021/07/07 10:29:16;;;;;;;5.25;3.13;;;;;;;;;;4993654;28;20050;-42
2021/07/07 10:31:51;;;;;;;3.47;2.75;;;;;;;;;;4993249;28;20538;-42
2021/07/07 10:34:19;;;;;;;4.25;3.00;;;;;;;;;;4985314;28;20085;-41
2021/07/07 10:36:46;;;;;;;4.47;2.85;;;;;;;;;;4993174;28;20101;-45
2021/07/07 10:39:13;;;;;;;4.15;2.92;;;;;;;;;;5007772;28;20137;-41
2021/07/07 10:41:47;;;;;;;4.25;2.80;;;;;;;;;;4992801;28;20038;-41
2021/07/07 10:44:22;;;;;;;2.58;2.30;;;;;;;;;;4993331;28;20074;-45
2021/07/07 10:46:50;;;;;;;3.45;2.97;;;;;;;;;;4991388;28;20046;-41
2021/07/07 10:49:18;;;;;;;3.55;2.45;;;;;;;;;;4989316;28;20042;-42
2021/07/07 10:51:45;;;;;;;3.20;2.40;;;;;;;;;;4993736;28;20046;-44
2021/07/07 10:54:22;;;;;;;3.33;2.50;;;;;;;;;;4991033;28;20038;-42
2021/07/07 10:56:49;;;;;;;2.95;2.30;;;;;;;;;;4990401;28;20113;-41
2021/07/07 10:59:30;;;;;;;3.15;2.00;;;;;;;;;;4993481;28;20081;-42
2021/07/07 11:02:08;;;;;;;3.42;2.03;;;;;;;;;;4981229;28;20129;-42
2021/07/07 11:04:35;;;;;;;2.70;2.30;;;;;;;;;;4990575;28;20046;-40
2021/07/07 11:07:20;;;;;;;2.45;1.90;;;;;;;;;;4992056;28;20074;-42
2021/07/07 11:09:52;;;;;;;3.20;2.03;;;;;;;;;;4993435;28;20054;-41
2021/07/07 11:12:41;;;;;;;3.65;2.13;;;;;;;;;;4990671;28;20125;-42
2021/07/07 11:15:08;;;;;;;5.32;1.83;;;;;;;;;;4987383;28;20065;-41
2021/07/07 11:17:35;;;;;;;3.58;1.88;;;;;;;;;;4996686;28;20141;-42
2021/07/07 11:20:05;;;;;;;2.75;1.75;;;;;;;;;;4989089;28;20416;-42
2021/07/07 11:22:32;;;;;;;3.03;1.73;;;;;;;;;;4992326;28;20158;-41
2021/07/07 11:25:03;;;;;;;1.90;1.65;;;;;;;;;;4989928;28;20540;-42
2021/07/07 11:27:33;;;;;;;2.42;1.50;;;;;;;;;;4987845;28;20086;-41
2021/07/07 11:30:15;;;;;;;2.08;1.42;;;;;;;;;;4992647;28;20057;-43
2021/07/07 11:32:43;;;;;;;2.58;1.70;;;;;;;;;;4987041;28;20046;-42
2021/07/07 11:35:17;;;;;;;1.35;1.20;;;;;;;;;;4987248;28;20133;-41
2021/07/07 11:37:44;;;;;;;1.77;1.42;;;;;;;;;;4995380;28;20121;-43
2021/07/07 11:40:18;;;;;;;4.28;1.63;;;;;;;;;;4986935;28;20121;-44
2021/07/07 11:42:56;;;;;;;3.30;1.63;;;;;;;;;;4989079;28;20485;-42
2021/07/07 11:45:28;;;;;;;4.43;1.60;;;;;;;;;;4991194;28;20048;-41
2021/07/07 11:47:59;;;;;;;3.80;1.67;;;;;;;;;;4991420;28;20133;-41
2021/07/07 11:50:27;;;;;;;4.80;1.80;;;;;;;;;;4986336;28;20056;-41
2021/07/07 11:52:54;;;;;;;1.90;1.52;;;;;;;;;;4990721;28;20396;-41
2021/07/07 11:55:39;;;;;;;2.38;1.30;;;;;;;;;;4993613;28;20583;-41
2021/07/07 11:58:06;;;;;;;2.42;1.50;;;;;;;;;;4985896;28;20125;-46
2021/07/07 12:00:37;;;;;;;2.72;1.50;;;;;;;;;;4990185;28;20042;-44
2021/07/07 12:03:03;;;;;;;2.00;1.40;;;;;;;;;;4985279;28;20053;-41
2021/07/07 12:05:56;;;;;;;3.85;1.55;;;;;;;;;;4988321;28;20201;-42
2021/07/07 12:08:23;;;;;;;;;;;;;;;;;;4988876;28;20492;-42
2021/07/07 12:10:50;;;;;;;6.38;2.78;;;;;;;;;;4975732;28;20251;-47
2021/07/07 12:13:23;;;;;;;2.00;1.30;;;;;;;;;;4990657;28;20058;-43
2021/07/07 12:15:50;;;;;;;2.08;1.50;;;;;;;;;;4986337;28;20058;-42
2021/07/07 12:18:23;;;;;;;2.08;1.40;;;;;;;;;;4989283;28;20050;-44
2021/07/07 12:20:50;;;;;;;2.72;1.40;;;;;;;;;;4985432;28;20490;-41
2021/07/07 12:23:17;;;;;;;2.25;1.60;;;;;;;;;;4985498;28;20122;-41
2021/07/07 12:25:44;;;;;;;4.10;1.80;;;;;;;;;;4992768;28;20043;-41
2021/07/07 12:28:11;;;;;;;3.40;1.50;;;;;;;;;;4987059;28;20042;-43
2021/07/07 12:30:38;;;;;;;2.38;1.77;;;;;;;;;;4989046;28;20053;-43
2021/07/07 12:33:05;;;;;;;2.53;1.60;;;;;;;;;;4990064;28;20042;-41
2021/07/07 12:35:32;;;;;;;1.83;1.30;;;;;;;;;;4991545;28;20064;-40
2021/07/07 12:37:58;;;;;;;4.03;1.45;;;;;;;;;;4991224;28;20452;-41
2021/07/07 12:40:30;;;;;;;2.17;1.50;;;;;;;;;;4981733;28;20077;-41
2021/07/07 12:43:01;;;;;;;;;;;;;;;;;;4985383;28;20042;-41
2021/07/07 12:45:28;;;;;;;2.38;1.60;;;;;;;;;;4993620;28;19922;-44
2021/07/07 12:48:03;;;;;;;4.50;1.35;;;;;;;;;;4989043;28;20056;-41
2021/07/07 12:50:38;;;;;;;1.75;1.30;;;;;;;;;;4990672;28;20125;-43
2021/07/07 12:53:05;;;;;;;1.63;1.52;;;;;;;;;;4986913;28;20114;-42
2021/07/07 12:55:32;;;;;;;2.42;1.60;;;;;;;;;;4987474;28;20070;-41
2021/07/07 12:58:01;;;;;;;2.33;1.50;;;;;;;;;;4990516;28;20481;-47
2021/07/07 13:00:31;;;;;;;3.05;1.50;;;;;;;;;;4986375;28;20555;-42
2021/07/07 13:02:59;;;;;;;1.75;1.33;;;;;;;;;;4984982;28;20050;-45
2021/07/07 13:05:30;;;;;;;4.00;1.55;;;;;;;;;;4985382;28;20129;-41
2021/07/07 13:07:58;;;;;;;2.60;1.42;;;;;;;;;;4983653;28;20046;-41
2021/07/07 13:10:32;;;;;;;5.00;1.55;;;;;;;;;;4987483;28;20069;-41
2021/07/07 13:13:18;;;;;;;1.80;1.00;;;;;;;;;;4987164;28;20053;-46
2021/07/07 13:16:03;;;;;;;3.83;1.10;;;;;;;;;;4988852;28;20042;-41
2021/07/07 13:18:31;;;;;;;1.50;1.30;;;;;;;;;;4982979;28;20129;-42
2021/07/07 13:21:02;;;;;;;1.08;0.98;;;;;;;;;;4985824;28;20060;-41
2021/07/07 13:23:29;;;;;;;2.97;1.23;;;;;;;;;;4982869;28;20122;-42
2021/07/07 13:26:15;;;;;;;1.33;1.20;;;;;;;;;;4986339;28;20447;-41
2021/07/07 13:28:43;;;;;;;2.63;1.20;;;;;;;;;;4987425;28;20034;-41
2021/07/07 13:31:11;;;;;;;3.85;1.30;;;;;;;;;;4987273;28;20522;-43
2021/07/07 13:33:38;;;;;;;2.80;1.25;;;;;;;;;;4986049;28;20101;-45
2021/07/07 13:36:05;;;;;;;1.20;1.10;;;;;;;;;;4990692;28;20064;-43
2021/07/07 13:38:31;;;;;;;1.73;1.17;;;;;;;;;;4991196;28;20068;-44
2021/07/07 13:40:59;;;;;;;1.92;1.42;;;;;;;;;;4985172;28;20117;-44
2021/07/07 13:43:26;;;;;;;2.40;1.33;;;;;;;;;;4990628;28;20125;-45
2021/07/07 13:45:53;;;;;;;2.58;1.50;;;;;;;;;;4990907;28;20233;-46
2021/07/07 13:48:21;;;;;;;2.00;1.40;;;;;;;;;;4984655;28;20093;-42
2021/07/07 13:50:48;;;;;;;2.05;1.40;;;;;;;;;;4972926;28;20061;-45
2021/07/07 13:53:15;;;;;;;2.22;1.30;;;;;;;;;;4972465;28;20077;-44
2021/07/07 13:55:41;;;;;;;2.35;1.20;;;;;;;;;;4987819;28;20042;-46
2021/07/07 13:58:08;;;;;;;3.47;1.45;;;;;;;;;;4989038;28;20030;-46
2021/07/07 14:00:35;;;;;;;2.47;1.55;;;;;;;;;;4987313;28;20830;-44
2021/07/07 14:03:02;;;;;;;2.10;1.20;;;;;;;;;;4990533;28;20035;-45
2021/07/07 14:05:29;;;;;;;4.03;1.13;;;;;;;;;;4992216;28;20210;-45
2021/07/07 14:07:55;;;;;;;1.75;1.10;;;;;;;;;;4990497;28;20125;-43
2021/07/07 14:10:22;;;;;;;3.05;1.52;;;;;;;;;;4986585;28;20446;-42
2021/07/07 14:12:49;;;;;;;2.70;1.40;;;;;;;;;;4987804;28;20058;-45
2021/07/07 14:15:16;;;;;;;3.95;1.52;;;;;;;;;;4992093;28;20035;-47
2021/07/07 14:17:43;;;;;;;9.13;2.15;;;;;;;;;;4990801;28;20042;-42
2021/07/07 14:20:10;;;;;;;3.85;1.60;;;;;;;;;;4975475;28;20042;-43
2021/07/07 14:22:37;;;;;;;4.00;1.30;;;;;;;;;;4982566;28;20193;-40
2021/07/07 14:25:04;;;;;;;1.75;1.17;;;;;;;;;;4972806;28;20053;-42
2021/07/07 14:27:31;;;;;;;1.55;1.20;;;;;;;;;;4984220;28;20543;-41
2021/07/07 14:29:57;;;;;;;2.22;1.33;;;;;;;;;;4990330;28;20109;-41
2021/07/07 14:32:24;;;;;;;2.53;1.45;;;;;;;;;;4987323;28;20042;-43
2021/07/07 14:34:52;;;;;;;2.47;1.45;;;;;;;;;;4992089;28;20104;-41
2021/07/07 14:37:18;;;;;;;2.38;1.30;;;;;;;;;;4990412;28;20042;-43
2021/07/07 14:39:45;;;;;;;1.63;1.25;;;;;;;;;;4990910;28;20125;-42
2021/07/07 14:42:12;;;;;;;1.58;1.10;;;;;;;;;;4982656;28;20050;-44
2021/07/07 14:44:59;;;;;;;2.28;1.30;;;;;;;;;;4991702;28;20043;-44
2021/07/07 14:47:25;;;;;;;2.35;1.30;;;;;;;;;;4990163;28;20492;-45
2021/07/07 14:49:52;;;;;;;3.88;1.40;;;;;;;;;;4986566;28;20054;-44